Callander, Canada
Current Conditions -  °F | °C
As of 1:00 PM on Friday 31 Oct 2014 (Local Time) from CYYB Reporting Station
Light Snow Light Snow  
Wind Chill: 19°   Ceiling: 2000
Heat Index: 30°   Visibility: 1mi
Dew Point: 28°   Wind: 15mph
Humidity: 93%   Direction: 30°NNE
Pressure: 30.05"   Gusts: 21mph
Location:  46.22°N, 79.36°W
Report Text: CYYB 311700Z 03013G18KT 1SM -SN SCT009 OVC020 M01/M02 A3005 RMK SF4SC4 SLP193
Loading
Personal Weather Stations






























Interactive Weather Map
Tropical Storm Tracking
New forecast layout! Learn more

10-Day Weather Forecast

Advertisements
Track Severe Weather on mobile